createdAt,value
2018-09-30T00:01:07.569Z,5.97
2018-09-30T00:03:40.053Z,5.80
2018-09-30T00:06:12.286Z,8.23
2018-09-30T00:08:44.772Z,6.70
2018-09-30T00:11:16.987Z,6.17
2018-09-30T00:13:49.307Z,8.87
2018-09-30T00:16:21.881Z,6.10
2018-09-30T00:18:54.780Z,6.30
2018-09-30T00:21:27.040Z,5.20
2018-09-30T00:24:03.544Z,5.20
2018-09-30T00:26:40.008Z,6.20
2018-09-30T00:29:12.259Z,5.97
2018-09-30T00:31:44.502Z,6.90
2018-09-30T00:34:21.073Z,6.03
2018-09-30T00:36:53.300Z,6.40
2018-09-30T00:39:26.455Z,5.80
2018-09-30T00:41:59.337Z,5.30
2018-09-30T00:44:32.248Z,5.37
2018-09-30T00:47:04.471Z,5.70
2018-09-30T00:49:36.767Z,5.23
2018-09-30T00:52:08.984Z,5.07
2018-09-30T00:54:41.261Z,4.47
2018-09-30T00:57:13.479Z,4.27
2018-09-30T00:59:45.761Z,4.57
2018-09-30T01:02:17.981Z,6.00
2018-09-30T01:04:50.344Z,5.63
2018-09-30T01:07:22.540Z,5.40
2018-09-30T01:09:54.802Z,5.37
2018-09-30T01:12:27.681Z,5.43
2018-09-30T01:14:59.983Z,8.43
2018-09-30T01:17:32.207Z,8.00
2018-09-30T01:20:04.523Z,6.90
2018-09-30T01:22:36.738Z,7.13
2018-09-30T01:25:09.082Z,7.87
2018-09-30T01:27:41.305Z,7.90
2018-09-30T01:30:13.637Z,9.10
2018-09-30T01:32:46.475Z,5.97
2018-09-30T01:35:18.797Z,6.93
2018-09-30T01:37:51.001Z,5.93
2018-09-30T01:40:23.251Z,6.20
2018-09-30T01:42:55.447Z,6.70
2018-09-30T01:45:27.706Z,6.70
2018-09-30T01:47:59.906Z,6.67
2018-09-30T01:50:32.316Z,7.00
2018-09-30T01:53:04.515Z,5.60
2018-09-30T01:55:36.814Z,6.07
2018-09-30T01:58:09.067Z,6.00
2018-09-30T02:00:41.386Z,6.73
2018-09-30T02:03:13.594Z,7.80
2018-09-30T02:05:46.035Z,7.00
2018-09-30T02:08:18.372Z,6.20
2018-09-30T02:10:50.631Z,5.53
2018-09-30T02:13:22.902Z,5.13
2018-09-30T02:15:55.641Z,6.43
2018-09-30T02:18:28.387Z,5.43
2018-09-30T02:21:01.664Z,6.10
2018-09-30T02:23:34.373Z,6.17
2018-09-30T02:26:07.328Z,8.00
2018-09-30T02:28:40.290Z,7.63
2018-09-30T02:31:13.276Z,7.27
2018-09-30T02:33:45.975Z,6.63
2018-09-30T02:36:18.931Z,7.23
2018-09-30T02:38:51.771Z,6.90
2018-09-30T02:41:24.320Z,6.67
2018-09-30T02:43:56.879Z,6.33
2018-09-30T02:46:29.425Z,5.50
2018-09-30T02:49:01.991Z,5.70
2018-09-30T02:51:34.354Z,6.37
2018-09-30T02:54:06.616Z,5.20
2018-09-30T02:56:39.592Z,5.93
2018-09-30T02:59:12.436Z,5.33
2018-09-30T03:01:46.157Z,5.40
2018-09-30T03:04:19.173Z,4.93
2018-09-30T03:06:56.533Z,4.97
2018-09-30T03:09:29.175Z,6.33
2018-09-30T03:12:01.928Z,5.20
2018-09-30T03:14:34.799Z,4.97
2018-09-30T03:17:08.408Z,5.83
2018-09-30T03:19:41.256Z,4.50
2018-09-30T03:22:14.006Z,5.10
2018-09-30T03:24:46.832Z,5.07
2018-09-30T03:27:19.683Z,5.63
2018-09-30T03:29:52.320Z,4.80
2018-09-30T03:32:25.231Z,6.53
2018-09-30T03:34:57.951Z,5.27
2018-09-30T03:37:31.038Z,6.17
2018-09-30T03:40:03.906Z,6.47
2018-09-30T03:42:36.686Z,6.13
2018-09-30T03:45:08.636Z,4.93
2018-09-30T03:47:40.980Z,5.73
2018-09-30T03:50:13.194Z,6.90
2018-09-30T03:52:45.440Z,5.90
2018-09-30T03:55:17.646Z,5.23
2018-09-30T03:57:50.013Z,4.90
2018-09-30T04:00:23.683Z,5.20
2018-09-30T04:02:55.982Z,5.60
2018-09-30T04:05:28.180Z,4.93
2018-09-30T04:08:00.723Z,5.10
2018-09-30T04:10:32.924Z,6.07
2018-09-30T04:13:05.257Z,6.73
2018-09-30T04:15:37.480Z,6.07
2018-09-30T04:18:09.735Z,5.30
2018-09-30T04:20:42.592Z,5.20
2018-09-30T04:23:15.540Z,5.30
2018-09-30T04:25:48.296Z,5.67
2018-09-30T04:28:21.254Z,5.27
2018-09-30T04:30:54.460Z,4.97
2018-09-30T04:33:27.591Z,5.07
2018-09-30T04:35:59.820Z,4.73
2018-09-30T04:38:32.088Z,4.90
2018-09-30T04:41:04.292Z,5.33
2018-09-30T04:43:37.314Z,5.93
2018-09-30T04:46:10.051Z,5.37
2018-09-30T04:48:43.005Z,5.90
2018-09-30T04:51:16.040Z,5.73
2018-09-30T04:53:48.901Z,5.57
2018-09-30T04:56:21.651Z,5.97
2018-09-30T04:58:54.571Z,6.50
2018-09-30T05:01:27.454Z,5.97
2018-09-30T05:03:59.953Z,6.30
2018-09-30T05:06:32.671Z,5.47
2018-09-30T05:09:05.956Z,6.33
2018-09-30T05:11:38.652Z,5.03
2018-09-30T05:14:11.170Z,6.03
2018-09-30T05:16:43.632Z,6.03
2018-09-30T05:19:15.915Z,5.80
2018-09-30T05:21:48.827Z,6.27
2018-09-30T05:24:21.262Z,7.23
2018-09-30T05:26:53.468Z,6.53
2018-09-30T05:29:25.775Z,8.27
2018-09-30T05:31:58.021Z,6.73
2018-09-30T05:34:30.307Z,6.43
2018-09-30T05:37:02.695Z,6.83
2018-09-30T05:39:35.576Z,5.83
2018-09-30T05:42:08.367Z,7.03
2018-09-30T05:44:40.648Z,5.43
2018-09-30T05:47:12.859Z,7.00
2018-09-30T05:49:45.113Z,7.37
2018-09-30T05:52:17.320Z,7.27
2018-09-30T05:54:49.631Z,6.73
2018-09-30T05:57:22.401Z,5.80
2018-09-30T05:59:55.284Z,6.53
2018-09-30T06:02:28.015Z,6.63
2018-09-30T06:05:00.772Z,5.50
2018-09-30T06:07:33.648Z,6.00
2018-09-30T06:10:06.542Z,6.30
2018-09-30T06:12:39.511Z,5.83
2018-09-30T06:15:12.552Z,5.67
2018-09-30T06:17:45.468Z,5.33
2018-09-30T06:20:18.375Z,5.57
2018-09-30T06:22:51.179Z,5.73
2018-09-30T06:25:23.917Z,5.57
2018-09-30T06:27:56.837Z,6.10
2018-09-30T06:30:29.581Z,6.07
2018-09-30T06:33:02.338Z,5.97
2018-09-30T06:35:35.116Z,6.00
2018-09-30T06:38:07.906Z,6.10
2018-09-30T06:40:40.588Z,6.03
2018-09-30T06:43:13.225Z,5.53
2018-09-30T06:45:46.042Z,6.03
2018-09-30T06:48:19.140Z,5.63
2018-09-30T06:50:52.047Z,5.47
2018-09-30T06:53:24.988Z,7.00
2018-09-30T06:55:57.904Z,5.93
2018-09-30T06:58:30.767Z,6.07
2018-09-30T07:01:03.554Z,5.73
2018-09-30T07:03:36.325Z,5.80
2018-09-30T07:06:09.847Z,5.43
2018-09-30T07:08:42.046Z,5.53
2018-09-30T07:11:14.316Z,6.70
2018-09-30T07:13:46.599Z,5.77
2018-09-30T07:16:18.928Z,5.50
2018-09-30T07:18:51.103Z,6.30
2018-09-30T07:21:23.348Z,6.30
2018-09-30T07:23:55.579Z,4.90
2018-09-30T07:26:27.844Z,5.37
2018-09-30T07:29:00.565Z,4.10
2018-09-30T07:31:33.351Z,3.17
2018-09-30T07:34:05.558Z,3.37
2018-09-30T07:36:37.804Z,2.50
2018-09-30T07:39:12.040Z,3.20
2018-09-30T07:41:44.308Z,3.27
2018-09-30T07:44:16.557Z,3.20
2018-09-30T07:46:48.965Z,3.80
2018-09-30T07:49:21.372Z,4.53
2018-09-30T07:51:53.622Z,4.00
2018-09-30T07:54:25.808Z,4.77
2018-09-30T07:56:58.081Z,5.33
2018-09-30T07:59:30.416Z,4.87
2018-09-30T08:02:02.864Z,4.70
2018-09-30T08:04:35.132Z,4.63
2018-09-30T08:07:07.460Z,4.73
2018-09-30T08:09:39.673Z,5.07
2018-09-30T08:12:11.978Z,4.70
2018-09-30T08:14:44.173Z,5.30
2018-09-30T08:17:16.507Z,5.23
2018-09-30T08:19:48.689Z,5.30
2018-09-30T08:22:20.951Z,5.10
2018-09-30T08:24:53.129Z,4.93
2018-09-30T08:27:25.380Z,5.33
2018-09-30T08:29:57.583Z,4.87
2018-09-30T08:32:29.872Z,5.10
2018-09-30T08:35:02.100Z,4.73
2018-09-30T08:37:38.671Z,5.63
2018-09-30T08:40:12.232Z,5.93
2018-09-30T08:42:45.199Z,5.27
2018-09-30T08:45:17.396Z,5.07
2018-09-30T08:47:49.800Z,4.47
2018-09-30T08:50:22.037Z,4.07
2018-09-30T08:52:54.279Z,3.83
2018-09-30T08:55:26.478Z,4.00
2018-09-30T08:57:58.755Z,3.40
2018-09-30T09:00:30.951Z,3.77
2018-09-30T09:03:04.235Z,3.20
2018-09-30T09:05:36.500Z,4.50
2018-09-30T09:08:08.768Z,4.47
2018-09-30T09:10:40.955Z,3.63
2018-09-30T09:13:13.243Z,4.50
2018-09-30T09:15:45.623Z,4.30
2018-09-30T09:18:17.898Z,4.23
2018-09-30T09:20:50.087Z,3.90
2018-09-30T09:23:22.347Z,4.00
2018-09-30T09:25:54.559Z,3.30
2018-09-30T09:28:26.903Z,3.07
2018-09-30T09:30:59.141Z,3.23
2018-09-30T09:33:31.406Z,2.87
2018-09-30T09:36:03.798Z,3.03
2018-09-30T09:38:36.184Z,3.20
2018-09-30T09:41:08.819Z,3.23
2018-09-30T09:43:41.107Z,2.87
2018-09-30T09:46:13.299Z,2.70
2018-09-30T09:48:45.605Z,3.37
2018-09-30T09:51:17.802Z,2.80
2018-09-30T09:53:50.035Z,3.20
2018-09-30T09:56:22.838Z,3.27
2018-09-30T09:58:55.190Z,3.00
2018-09-30T10:01:27.463Z,3.50
2018-09-30T10:04:00.630Z,4.60
2018-09-30T10:06:33.288Z,4.67
2018-09-30T10:09:06.658Z,4.97
2018-09-30T10:11:39.494Z,5.93
2018-09-30T10:14:12.780Z,4.23
2018-09-30T10:16:45.692Z,3.47
2018-09-30T10:19:18.611Z,3.47
2018-09-30T10:21:50.792Z,3.67
2018-09-30T10:24:23.021Z,3.97
2018-09-30T10:26:55.241Z,4.20
2018-09-30T10:29:27.525Z,4.40
2018-09-30T10:31:59.743Z,4.53
2018-09-30T10:34:32.019Z,4.13
2018-09-30T10:37:04.272Z,3.50
2018-09-30T10:39:36.608Z,3.23
2018-09-30T10:42:09.459Z,3.97
2018-09-30T10:44:42.345Z,4.03
2018-09-30T10:47:15.359Z,3.90
2018-09-30T10:49:48.268Z,4.30
2018-09-30T10:52:21.272Z,4.37
2018-09-30T10:54:54.155Z,3.90
2018-09-30T10:57:26.714Z,3.57
2018-09-30T10:59:59.671Z,4.40
2018-09-30T11:02:32.396Z,3.63
2018-09-30T11:05:05.207Z,3.83
2018-09-30T11:07:38.015Z,4.23
2018-09-30T11:10:10.960Z,4.20
2018-09-30T11:12:43.920Z,3.60
2018-09-30T11:15:16.758Z,3.73
2018-09-30T11:17:48.955Z,3.67
2018-09-30T11:20:22.163Z,3.73
2018-09-30T11:22:54.891Z,3.93
2018-09-30T11:25:27.983Z,3.47
2018-09-30T11:28:00.701Z,2.97
2018-09-30T11:30:32.944Z,3.70
2018-09-30T11:33:05.412Z,3.00
2018-09-30T11:35:38.165Z,3.40
2018-09-30T11:38:10.627Z,3.80
2018-09-30T11:40:42.909Z,3.33
2018-09-30T11:43:15.108Z,3.73
2018-09-30T11:45:47.371Z,3.60
2018-09-30T11:48:19.562Z,3.90
2018-09-30T11:50:51.831Z,3.90
2018-09-30T11:53:24.040Z,3.57
2018-09-30T11:55:56.463Z,4.20
2018-09-30T11:58:28.667Z,4.50
2018-09-30T12:01:00.989Z,4.07
2018-09-30T12:03:33.188Z,4.60
2018-09-30T12:06:05.532Z,5.10
2018-09-30T12:08:37.918Z,6.07
2018-09-30T12:11:10.366Z,5.67
2018-09-30T12:13:42.581Z,6.60
2018-09-30T12:16:14.856Z,6.00
2018-09-30T12:18:47.137Z,6.03
2018-09-30T12:21:19.499Z,5.10
2018-09-30T12:23:51.729Z,5.07
2018-09-30T12:26:23.982Z,5.10
2018-09-30T12:28:56.185Z,5.37
2018-09-30T12:31:28.536Z,4.87
2018-09-30T12:34:00.758Z,5.40
2018-09-30T12:36:33.778Z,5.97
2018-09-30T12:39:06.754Z,6.30
2018-09-30T12:41:39.072Z,7.03
2018-09-30T12:44:11.288Z,7.00
2018-09-30T12:46:43.561Z,6.60
2018-09-30T12:49:15.767Z,6.63
2018-09-30T12:51:48.245Z,6.57
2018-09-30T12:54:20.488Z,6.97
2018-09-30T12:56:52.800Z,7.30
2018-09-30T12:59:24.998Z,8.07
2018-09-30T13:01:57.268Z,6.60
2018-09-30T13:04:29.557Z,6.70
2018-09-30T13:07:01.892Z,6.43
2018-09-30T13:09:34.085Z,6.67
2018-09-30T13:12:06.370Z,6.40
2018-09-30T13:14:38.562Z,5.90
2018-09-30T13:17:10.836Z,5.73
2018-09-30T13:19:44.119Z,5.57
2018-09-30T13:22:16.610Z,4.87
2018-09-30T13:24:48.797Z,5.27
2018-09-30T13:27:21.270Z,4.60
2018-09-30T13:29:53.641Z,5.00
2018-09-30T13:32:26.039Z,6.27
2018-09-30T13:34:58.272Z,5.50
2018-09-30T13:37:30.709Z,5.80
2018-09-30T13:40:03.411Z,6.23
2018-09-30T13:42:39.271Z,5.93
2018-09-30T13:45:12.699Z,4.70
2018-09-30T13:47:44.951Z,4.60
2018-09-30T13:50:17.169Z,4.30
2018-09-30T13:52:49.535Z,4.10
2018-09-30T13:55:21.759Z,4.07
2018-09-30T13:57:54.029Z,4.50
2018-09-30T14:00:26.402Z,3.87
2018-09-30T14:02:58.688Z,3.90
2018-09-30T14:05:30.930Z,3.67
2018-09-30T14:08:04.216Z,3.20
2018-09-30T14:10:36.471Z,3.37
2018-09-30T14:13:09.641Z,3.80
2018-09-30T14:15:48.034Z,3.30
2018-09-30T14:18:21.110Z,3.30
2018-09-30T14:20:54.131Z,3.83
2018-09-30T14:23:26.503Z,4.83
2018-09-30T14:25:58.696Z,4.97
2018-09-30T14:28:30.988Z,3.60
2018-09-30T14:31:03.206Z,3.40
2018-09-30T14:33:35.456Z,3.17
2018-09-30T14:36:07.735Z,2.93
2018-09-30T14:38:40.102Z,4.33
2018-09-30T14:41:12.312Z,3.33
2018-09-30T14:43:44.752Z,3.93
2018-09-30T14:46:16.968Z,3.90
2018-09-30T14:48:49.237Z,3.00
2018-09-30T14:51:21.548Z,3.20
2018-09-30T14:53:54.027Z,3.57
2018-09-30T14:56:26.259Z,3.57
2018-09-30T14:58:58.542Z,4.20
2018-09-30T15:01:30.748Z,3.97
2018-09-30T15:04:04.536Z,4.50
2018-09-30T15:06:36.766Z,4.70
2018-09-30T15:09:12.075Z,3.53
2018-09-30T15:11:44.271Z,2.80
2018-09-30T15:14:16.525Z,2.87
2018-09-30T15:16:48.736Z,2.67
2018-09-30T15:19:21.055Z,5.22
2018-09-30T15:21:53.812Z,2.87
2018-09-30T15:24:26.850Z,2.70
2018-09-30T15:26:59.745Z,3.12
2018-09-30T15:29:32.613Z,2.30
2018-09-30T15:32:05.420Z,2.22
2018-09-30T15:34:38.380Z,2.30
2018-09-30T15:37:11.364Z,3.30
2018-09-30T15:39:43.707Z,2.50
2018-09-30T15:42:16.023Z,2.02
2018-09-30T15:44:48.581Z,2.25
2018-09-30T15:47:21.024Z,2.10
2018-09-30T15:49:55.357Z,2.33
2018-09-30T15:52:28.102Z,1.90
2018-09-30T15:55:00.796Z,2.20
2018-09-30T15:57:33.412Z,2.30
2018-09-30T16:00:06.063Z,1.90
2018-09-30T16:02:38.860Z,2.83
2018-09-30T16:05:11.987Z,2.67
2018-09-30T16:07:44.966Z,2.47
2018-09-30T16:10:18.711Z,2.02
2018-09-30T16:12:51.748Z,2.15
2018-09-30T16:15:24.541Z,2.02
2018-09-30T16:17:57.605Z,1.90
2018-09-30T16:20:30.395Z,2.33
2018-09-30T16:23:03.068Z,2.02
2018-09-30T16:25:35.896Z,2.08
2018-09-30T16:28:08.113Z,2.67
2018-09-30T16:30:40.753Z,1.60
2018-09-30T16:33:13.357Z,2.72
2018-09-30T16:35:46.422Z,2.62
2018-09-30T16:38:19.021Z,3.02
2018-09-30T16:40:51.772Z,2.50
2018-09-30T16:43:24.361Z,2.77
2018-09-30T16:45:57.261Z,2.02
2018-09-30T16:48:30.179Z,2.37
2018-09-30T16:51:02.890Z,4.35
2018-09-30T16:53:35.568Z,2.72
2018-09-30T16:56:08.604Z,3.72
2018-09-30T16:58:41.379Z,2.50
2018-09-30T17:01:14.235Z,2.10
2018-09-30T17:03:47.023Z,3.20
2018-09-30T17:06:20.053Z,2.80
2018-09-30T17:08:52.829Z,2.40
2018-09-30T17:11:25.449Z,2.62
2018-09-30T17:13:58.193Z,5.20
2018-09-30T17:16:30.797Z,3.37
2018-09-30T17:19:04.005Z,2.98
2018-09-30T17:21:36.983Z,3.52
2018-09-30T17:24:09.853Z,2.92
2018-09-30T17:26:43.050Z,2.15
2018-09-30T17:29:15.580Z,3.58
2018-09-30T17:31:48.774Z,3.50
2018-09-30T17:34:21.647Z,2.10
2018-09-30T17:36:54.128Z,2.42
2018-09-30T17:39:26.455Z,2.55
2018-09-30T17:41:59.197Z,2.67
2018-09-30T17:44:31.864Z,3.08
2018-09-30T17:47:04.977Z,2.20
2018-09-30T17:49:37.831Z,1.85
2018-09-30T17:52:10.605Z,1.85
2018-09-30T17:54:43.664Z,2.42
2018-09-30T17:57:15.933Z,3.02
2018-09-30T17:59:48.187Z,4.03
2018-09-30T18:02:20.501Z,4.25
2018-09-30T18:04:52.699Z,3.45
2018-09-30T18:07:25.644Z,3.05
2018-09-30T18:09:58.219Z,6.67
2018-09-30T18:12:31.710Z,2.52
2018-09-30T18:15:03.993Z,2.10
2018-09-30T18:17:37.035Z,3.10
2018-09-30T18:20:10.154Z,3.02
2018-09-30T18:22:43.360Z,2.25
2018-09-30T18:25:16.384Z,3.08
2018-09-30T18:27:49.655Z,3.12
2018-09-30T18:30:22.568Z,2.37
2018-09-30T18:32:55.645Z,2.80
2018-09-30T18:35:28.215Z,4.25
2018-09-30T18:38:01.132Z,2.20
2018-09-30T18:40:45.292Z,3.33
2018-09-30T18:43:18.546Z,2.95
2018-09-30T18:45:51.508Z,3.02
2018-09-30T18:48:25.301Z,2.90
2018-09-30T18:50:58.416Z,3.85
2018-09-30T18:53:31.622Z,4.37
2018-09-30T18:56:04.647Z,2.30
2018-09-30T18:58:37.833Z,3.42
2018-09-30T19:01:11.523Z,3.02
2018-09-30T19:03:45.872Z,2.77
2018-09-30T19:06:18.754Z,3.10
2018-09-30T19:08:51.937Z,2.87
2018-09-30T19:11:25.242Z,3.45
2018-09-30T19:13:58.306Z,5.60
2018-09-30T19:16:31.292Z,4.12
2018-09-30T19:19:05.261Z,2.60
2018-09-30T19:21:38.183Z,3.62
2018-09-30T19:24:10.579Z,6.08
2018-09-30T19:26:42.822Z,5.35
2018-09-30T19:29:15.241Z,2.50
2018-09-30T19:31:47.443Z,2.17
2018-09-30T19:34:19.743Z,2.30
2018-09-30T19:36:52.008Z,2.90
2018-09-30T19:39:24.268Z,3.00
2018-09-30T19:41:56.468Z,3.98
2018-09-30T19:44:28.819Z,2.87
2018-09-30T19:47:01.003Z,5.58
2018-09-30T19:49:33.501Z,2.98
2018-09-30T19:52:06.175Z,4.12
2018-09-30T19:54:39.079Z,3.20
2018-09-30T19:57:12.168Z,2.62
2018-09-30T19:59:45.104Z,2.47
2018-09-30T20:02:17.303Z,2.50
2018-09-30T20:04:49.659Z,2.52
2018-09-30T20:07:21.858Z,5.90
2018-09-30T20:09:54.242Z,2.83
2018-09-30T20:12:26.477Z,3.27
2018-09-30T20:14:58.719Z,5.58
2018-09-30T20:17:30.911Z,2.35
2018-09-30T20:20:03.180Z,4.17
2018-09-30T20:22:35.502Z,2.95
2018-09-30T20:25:07.911Z,3.33
2018-09-30T20:27:40.753Z,4.90
2018-09-30T20:30:13.821Z,5.05
2018-09-30T20:32:46.861Z,3.42
2018-09-30T20:35:19.123Z,4.40
2018-09-30T20:37:51.364Z,2.60
2018-09-30T20:40:23.683Z,7.08
2018-09-30T20:42:55.872Z,4.00
2018-09-30T20:45:28.649Z,2.95
2018-09-30T20:48:01.446Z,7.00
2018-09-30T20:50:34.320Z,2.40
2018-09-30T20:53:07.559Z,2.62
2018-09-30T20:55:40.437Z,3.45
2018-09-30T20:58:13.211Z,4.03
2018-09-30T21:00:45.872Z,4.08
2018-09-30T21:03:19.619Z,3.75
2018-09-30T21:06:54.665Z,4.75
2018-09-30T21:09:27.608Z,2.60
2018-09-30T21:12:02.344Z,3.62
2018-09-30T21:14:34.596Z,2.37
2018-09-30T21:17:06.904Z,3.35
2018-09-30T21:19:39.743Z,3.70
2018-09-30T21:22:12.495Z,3.87
2018-09-30T21:24:45.279Z,4.27
2018-09-30T21:27:17.645Z,3.77
2018-09-30T21:29:49.900Z,3.30
2018-09-30T21:32:22.465Z,4.08
2018-09-30T21:34:55.092Z,3.65
2018-09-30T21:37:28.494Z,3.80
2018-09-30T21:40:01.545Z,3.37
2018-09-30T21:42:34.600Z,3.03
2018-09-30T21:45:06.836Z,3.47
2018-09-30T21:47:39.107Z,4.85
2018-09-30T21:50:11.890Z,2.90
2018-09-30T21:52:44.151Z,5.40
2018-09-30T21:55:16.352Z,7.70
2018-09-30T21:57:48.656Z,2.93
2018-09-30T22:00:25.180Z,3.70
2018-09-30T22:02:57.469Z,4.40
2018-09-30T22:05:30.260Z,4.43
2018-09-30T22:08:02.868Z,4.00
2018-09-30T22:10:35.151Z,4.00
2018-09-30T22:13:07.551Z,4.47
2018-09-30T22:15:40.092Z,4.07
2018-09-30T22:18:12.356Z,6.73
2018-09-30T22:20:45.052Z,3.60
2018-09-30T22:23:17.970Z,4.63
2018-09-30T22:25:50.176Z,4.00
2018-09-30T22:28:22.489Z,5.60
2018-09-30T22:30:54.722Z,5.20
2018-09-30T22:33:26.963Z,3.87
2018-09-30T22:35:59.147Z,3.73
2018-09-30T22:38:31.397Z,4.77
2018-09-30T22:41:04.348Z,3.63
2018-09-30T22:43:37.146Z,3.13
2018-09-30T22:46:09.945Z,3.30
2018-09-30T22:48:42.895Z,3.10
2018-09-30T22:51:15.552Z,3.90
2018-09-30T22:53:48.310Z,2.80
2018-09-30T22:56:20.916Z,3.57
2018-09-30T22:58:53.932Z,4.03
2018-09-30T23:01:26.582Z,3.50
2018-09-30T23:03:59.222Z,3.70
2018-09-30T23:06:32.062Z,2.87
2018-09-30T23:09:05.848Z,2.50
2018-09-30T23:11:38.541Z,2.60
2018-09-30T23:14:11.431Z,3.00
2018-09-30T23:16:44.329Z,2.13
2018-09-30T23:19:17.176Z,7.03
2018-09-30T23:21:50.115Z,2.67
2018-09-30T23:24:23.201Z,2.77
2018-09-30T23:26:55.968Z,2.80
2018-09-30T23:29:29.049Z,3.27
2018-09-30T23:32:01.781Z,3.60
2018-09-30T23:34:34.657Z,3.20
2018-09-30T23:37:07.598Z,3.80
2018-09-30T23:39:40.587Z,3.60
2018-09-30T23:42:13.692Z,3.80
2018-09-30T23:44:46.349Z,3.20
2018-09-30T23:47:19.348Z,3.20
2018-09-30T23:49:52.251Z,4.00
2018-09-30T23:52:25.201Z,4.37
2018-09-30T23:54:58.222Z,3.60
2018-09-30T23:57:31.208Z,4.20
